Time;durP1;ratioP1;P1;durP2;ratioP2;P2;SDS_P1;SDS_P2;PMS_P1;PMS_P2;Temp;Humidity;BMP_temperature;BMP_pressure;BME280_temperature;BME280_humidity;BME280_pressure;Samples;Min_cycle;Max_cycle;Signal;HPM_P1;HPM_P2
2022/11/18 00:01:25;;;;;;;4.50;3.20;;;;;;;;;;5067482;28;20248;-77
2022/11/18 00:03:51;;;;;;;5.20;3.57;;;;;;;;;;5047841;28;20209;-77
2022/11/18 00:06:22;;;;;;;5.77;3.10;;;;;;;;;;5068101;28;20231;-77
2022/11/18 00:08:48;;;;;;;3.73;2.93;;;;;;;;;;5068751;28;20268;-77
2022/11/18 00:14:17;;;;;;;3.87;3.30;;;;;;;;;;5066003;28;20185;-77
2022/11/18 00:14:17;;;;;;;5.40;3.47;;;;;;;;;;5068622;28;20764;-77
2022/11/18 00:16:58;;;;;;;5.40;3.30;;;;;;;;;;5049754;28;20174;-77
2022/11/18 00:19:26;;;;;;;3.80;2.90;;;;;;;;;;5066175;28;20208;-77
2022/11/18 00:21:52;;;;;;;4.23;2.80;;;;;;;;;;5063818;28;20174;-77
2022/11/18 00:24:19;;;;;;;4.20;2.70;;;;;;;;;;5068824;28;20201;-77
2022/11/18 00:26:45;;;;;;;3.90;2.63;;;;;;;;;;5072412;28;20169;-77
2022/11/18 00:29:11;;;;;;;4.80;2.30;;;;;;;;;;5067820;28;20216;-77
2022/11/18 00:31:38;;;;;;;4.30;2.20;;;;;;;;;;5068068;28;20186;-77
2022/11/18 00:34:04;;;;;;;2.37;1.97;;;;;;;;;;5067002;28;20216;-77
2022/11/18 00:36:31;;;;;;;3.23;1.70;;;;;;;;;;5047914;28;20188;-78
2022/11/18 00:38:57;;;;;;;4.07;1.80;;;;;;;;;;5084112;28;20177;-77
2022/11/18 00:41:23;;;;;;;5.10;2.53;;;;;;;;;;5066397;28;20207;-77
2022/11/18 00:43:49;;;;;;;2.23;1.70;;;;;;;;;;5068436;28;20200;-77
2022/11/18 00:46:16;;;;;;;2.47;1.90;;;;;;;;;;5081157;28;20190;-77
2022/11/18 00:48:42;;;;;;;4.67;2.00;;;;;;;;;;5067652;28;20185;-77
2022/11/18 00:51:11;;;;;;;2.80;1.90;;;;;;;;;;5066074;28;20231;-77
2022/11/18 00:53:37;;;;;;;3.10;1.83;;;;;;;;;;5066354;28;20225;-77
2022/11/18 00:56:03;;;;;;;2.77;1.73;;;;;;;;;;5067619;28;20271;-77
2022/11/18 00:58:30;;;;;;;2.03;1.60;;;;;;;;;;5067653;28;20698;-77
2022/11/18 01:00:56;;;;;;;2.97;1.97;;;;;;;;;;5068068;28;20264;-77
2022/11/18 01:03:24;;;;;;;5.60;2.23;;;;;;;;;;5066498;28;20308;-77
2022/11/18 01:05:51;;;;;;;5.43;2.20;;;;;;;;;;5065691;28;20605;-77
2022/11/18 01:08:18;;;;;;;6.20;2.10;;;;;;;;;;5066842;28;20221;-77
2022/11/18 01:10:45;;;;;;;4.73;2.40;;;;;;;;;;5067384;28;20185;-78
2022/11/18 01:13:18;;;;;;;4.70;2.10;;;;;;;;;;5064618;28;20197;-77
2022/11/18 01:15:54;;;;;;;4.13;2.10;;;;;;;;;;5060514;28;20234;-77
2022/11/18 01:18:22;;;;;;;5.27;2.70;;;;;;;;;;5060324;28;20191;-77
2022/11/18 01:20:48;;;;;;;3.17;2.30;;;;;;;;;;5067066;28;20177;-77
2022/11/18 01:23:15;;;;;;;2.30;1.73;;;;;;;;;;5067316;28;20197;-78
2022/11/18 01:25:42;;;;;;;4.30;1.80;;;;;;;;;;5082339;28;20192;-77
2022/11/18 01:28:08;;;;;;;1.93;1.60;;;;;;;;;;5057100;28;20216;-77
2022/11/18 01:30:35;;;;;;;1.70;1.40;;;;;;;;;;5065490;28;20185;-77
2022/11/18 01:33:02;;;;;;;2.93;1.67;;;;;;;;;;5067234;28;20252;-77
2022/11/18 01:35:29;;;;;;;2.83;1.60;;;;;;;;;;5067472;28;20173;-77
2022/11/18 01:37:55;;;;;;;3.40;1.60;;;;;;;;;;5065943;28;20223;-77
2022/11/18 01:40:21;;;;;;;3.93;2.50;;;;;;;;;;5067357;28;20662;-77
2022/11/18 01:42:48;;;;;;;3.33;2.70;;;;;;;;;;5061294;28;20205;-77
2022/11/18 01:45:19;;;;;;;3.53;2.60;;;;;;;;;;5067096;28;20178;-77
2022/11/18 01:47:51;;;;;;;5.37;3.50;;;;;;;;;;5066704;28;20181;-77
2022/11/18 01:50:19;;;;;;;2.90;2.60;;;;;;;;;;5067425;28;20210;-77
2022/11/18 01:52:46;;;;;;;5.50;3.10;;;;;;;;;;5062835;28;20218;-77
2022/11/18 01:55:14;;;;;;;4.33;2.83;;;;;;;;;;5065705;28;20191;-77
2022/11/18 01:57:40;;;;;;;3.83;2.67;;;;;;;;;;5082128;28;20177;-77
2022/11/18 02:00:07;;;;;;;4.30;3.10;;;;;;;;;;5066767;28;20165;-77
2022/11/18 02:02:35;;;;;;;2.90;2.60;;;;;;;;;;5066707;28;20234;-77
2022/11/18 02:05:03;;;;;;;4.83;2.80;;;;;;;;;;5067834;28;20886;-77
2022/11/18 02:07:31;;;;;;;4.83;3.00;;;;;;;;;;5066742;28;20672;-77
2022/11/18 02:09:57;;;;;;;8.47;6.93;;;;;;;;;;5066133;28;20193;-77
2022/11/18 02:12:23;;;;;;;9.87;7.53;;;;;;;;;;5061541;28;20300;-77
2022/11/18 02:14:50;;;;;;;5.43;4.90;;;;;;;;;;5067531;28;20223;-77
2022/11/18 02:17:22;;;;;;;4.43;3.60;;;;;;;;;;5066791;28;20180;-77
2022/11/18 02:20:08;;;;;;;3.80;3.40;;;;;;;;;;5066388;28;20189;-77
2022/11/18 02:22:53;;;;;;;5.93;3.50;;;;;;;;;;5054082;28;20672;-78
2022/11/18 02:25:40;;;;;;;4.43;3.20;;;;;;;;;;5067391;28;20173;-78
2022/11/18 02:28:19;;;;;;;3.97;3.50;;;;;;;;;;5067207;28;20189;-77
2022/11/18 02:31:18;;;;;;;3.53;3.20;;;;;;;;;;5058032;28;20749;-77
2022/11/18 02:34:13;;;;;;;5.23;3.37;;;;;;;;;;5057736;28;20237;-77
2022/11/18 02:36:43;;;;;;;4.83;3.40;;;;;;;;;;5059634;28;20253;-77
2022/11/18 02:39:13;;;;;;;3.23;2.80;;;;;;;;;;5069596;28;20623;-77
2022/11/18 02:41:41;;;;;;;4.03;2.67;;;;;;;;;;5070906;28;20836;-77
2022/11/18 02:44:14;;;;;;;3.77;3.10;;;;;;;;;;5069601;28;20212;-77
2022/11/18 02:46:42;;;;;;;4.33;3.10;;;;;;;;;;5066698;28;20553;-77
2022/11/18 02:49:14;;;;;;;4.70;2.90;;;;;;;;;;5071187;28;20177;-77
2022/11/18 02:51:41;;;;;;;3.87;2.73;;;;;;;;;;5062159;28;20186;-77
2022/11/18 02:54:08;;;;;;;3.13;2.50;;;;;;;;;;5070198;28;20718;-77
2022/11/18 02:56:35;;;;;;;4.67;2.87;;;;;;;;;;5067490;28;20324;-77
2022/11/18 02:59:02;;;;;;;3.77;2.40;;;;;;;;;;5086054;28;20220;-77
2022/11/18 03:01:29;;;;;;;4.47;2.70;;;;;;;;;;5065518;28;20192;-77
2022/11/18 03:03:56;;;;;;;3.93;2.40;;;;;;;;;;5068697;28;20235;-77
2022/11/18 03:06:42;;;;;;;4.27;2.30;;;;;;;;;;5085514;28;20185;-77
2022/11/18 03:09:11;;;;;;;3.50;2.73;;;;;;;;;;5069179;28;20200;-77
2022/11/18 03:11:55;;;;;;;3.13;2.40;;;;;;;;;;5068392;28;20246;-77
2022/11/18 03:14:28;;;;;;;4.27;2.80;;;;;;;;;;5085575;28;20268;-77
2022/11/18 03:16:58;;;;;;;3.60;2.60;;;;;;;;;;5069863;28;20184;-77
2022/11/18 03:19:32;;;;;;;4.53;2.67;;;;;;;;;;5076823;28;20200;-77
2022/11/18 03:22:12;;;;;;;4.30;2.70;;;;;;;;;;5067239;28;20189;-77
2022/11/18 03:24:40;;;;;;;3.93;2.53;;;;;;;;;;5066049;28;20185;-77
2022/11/18 03:27:29;;;;;;;4.53;2.80;;;;;;;;;;5064660;28;20287;-77
2022/11/18 03:30:02;;;;;;;4.10;2.60;;;;;;;;;;5068321;28;20174;-76
2022/11/18 03:32:29;;;;;;;6.00;3.07;;;;;;;;;;5068744;28;20255;-77
2022/11/18 03:34:58;;;;;;;4.63;3.13;;;;;;;;;;5069488;28;20181;-78
2022/11/18 03:37:25;;;;;;;4.70;3.10;;;;;;;;;;5046741;28;20177;-77
2022/11/18 03:39:53;;;;;;;4.23;2.93;;;;;;;;;;5067932;28;20697;-78
2022/11/18 03:42:24;;;;;;;4.60;3.10;;;;;;;;;;5068677;28;20573;-77
2022/11/18 03:44:53;;;;;;;3.80;3.10;;;;;;;;;;5069535;28;20778;-77
2022/11/18 03:47:24;;;;;;;6.83;3.30;;;;;;;;;;5061419;28;20188;-77
2022/11/18 03:49:53;;;;;;;3.97;3.03;;;;;;;;;;5061537;28;20177;-77
2022/11/18 03:52:21;;;;;;;3.00;2.70;;;;;;;;;;5066884;28;20235;-77
2022/11/18 03:54:49;;;;;;;4.93;3.43;;;;;;;;;;5067954;28;20193;-77
2022/11/18 03:57:39;;;;;;;3.10;2.53;;;;;;;;;;5068425;28;20177;-78
2022/11/18 04:00:07;;;;;;;4.10;3.00;;;;;;;;;;5048599;28;20664;-77
2022/11/18 04:02:33;;;;;;;5.07;2.97;;;;;;;;;;5067961;28;20201;-77
2022/11/18 04:05:00;;;;;;;4.87;2.90;;;;;;;;;;5055517;28;20288;-78
2022/11/18 04:07:32;;;;;;;3.27;2.90;;;;;;;;;;5069524;28;20189;-77
2022/11/18 04:10:18;;;;;;;4.27;2.97;;;;;;;;;;5069112;28;20200;-77
2022/11/18 04:12:46;;;;;;;5.73;3.60;;;;;;;;;;5065386;28;20217;-78
2022/11/18 04:15:13;;;;;;;5.23;3.50;;;;;;;;;;5083071;28;20612;-77
2022/11/18 04:17:41;;;;;;;4.20;3.13;;;;;;;;;;5064232;28;20701;-77
2022/11/18 04:20:12;;;;;;;5.93;3.63;;;;;;;;;;5068135;28;20173;-78
2022/11/18 04:22:39;;;;;;;3.80;3.20;;;;;;;;;;5065321;28;20208;-77
2022/11/18 04:25:05;;;;;;;4.87;3.33;;;;;;;;;;5072530;28;20254;-77
2022/11/18 04:27:31;;;;;;;5.40;3.80;;;;;;;;;;5068012;28;20192;-77
2022/11/18 04:29:57;;;;;;;5.80;4.13;;;;;;;;;;5067879;28;20185;-77
2022/11/18 04:32:23;;;;;;;4.17;3.77;;;;;;;;;;5068565;28;20469;-77
2022/11/18 04:34:49;;;;;;;4.17;3.57;;;;;;;;;;5068897;28;20181;-77
2022/11/18 04:37:15;;;;;;;5.37;4.13;;;;;;;;;;5068428;28;20208;-77
2022/11/18 04:39:42;;;;;;;5.33;4.23;;;;;;;;;;5067444;28;20689;-77
2022/11/18 04:42:09;;;;;;;4.70;4.10;;;;;;;;;;5068185;28;20309;-77
2022/11/18 04:44:35;;;;;;;5.60;4.73;;;;;;;;;;5062032;28;20178;-77
2022/11/18 04:47:03;;;;;;;7.60;5.10;;;;;;;;;;5057430;28;20716;-77
2022/11/18 04:49:29;;;;;;;6.27;5.10;;;;;;;;;;5084947;28;20553;-77
2022/11/18 04:51:56;;;;;;;5.80;4.50;;;;;;;;;;5067752;28;20203;-77
2022/11/18 04:54:23;;;;;;;4.93;4.43;;;;;;;;;;5068330;28;20181;-77
2022/11/18 04:56:49;;;;;;;5.00;4.50;;;;;;;;;;5068720;28;20173;-77
2022/11/18 04:59:16;;;;;;;6.77;5.40;;;;;;;;;;5082417;28;20212;-77
2022/11/18 05:01:42;;;;;;;6.20;5.60;;;;;;;;;;5067945;28;20177;-77
2022/11/18 05:04:12;;;;;;;7.07;5.60;;;;;;;;;;5066540;28;20203;-77
2022/11/18 05:06:38;;;;;;;5.33;4.83;;;;;;;;;;5067257;28;20755;-77
2022/11/18 05:09:04;;;;;;;6.93;5.27;;;;;;;;;;5067737;28;20258;-77
2022/11/18 05:14:16;;;;;;;6.73;4.90;;;;;;;;;;5066686;28;20212;-77
2022/11/18 05:16:43;;;;;;;8.33;6.13;;;;;;;;;;5082753;28;20309;-77
2022/11/18 05:19:09;;;;;;;6.73;5.67;;;;;;;;;;5064526;28;20259;-77
2022/11/18 05:21:36;;;;;;;7.20;6.37;;;;;;;;;;5065196;28;20207;-77
2022/11/18 05:24:03;;;;;;;7.47;5.70;;;;;;;;;;5064777;28;20702;-77
2022/11/18 05:26:29;;;;;;;7.70;6.23;;;;;;;;;;5073366;28;20181;-77
2022/11/18 05:28:55;;;;;;;7.53;6.77;;;;;;;;;;5067568;28;20683;-77
2022/11/18 05:31:22;;;;;;;9.73;7.67;;;;;;;;;;5061059;28;20505;-76
2022/11/18 05:33:48;;;;;;;10.20;7.90;;;;;;;;;;5066671;28;20219;-77
2022/11/18 05:36:15;;;;;;;8.63;7.33;;;;;;;;;;5068423;28;20660;-77
2022/11/18 05:38:42;;;;;;;7.93;7.13;;;;;;;;;;5068553;28;20700;-77
2022/11/18 05:41:08;;;;;;;8.50;7.47;;;;;;;;;;5059615;28;20211;-77
2022/11/18 05:43:35;;;;;;;6.50;5.80;;;;;;;;;;5065735;28;20751;-77
2022/11/18 05:46:01;;;;;;;6.70;4.97;;;;;;;;;;5066078;28;20187;-77
2022/11/18 05:48:28;;;;;;;5.87;4.23;;;;;;;;;;5064877;28;20566;-77
2022/11/18 05:50:54;;;;;;;5.70;3.17;;;;;;;;;;5064354;28;20230;-76
2022/11/18 05:53:22;;;;;;;6.73;3.43;;;;;;;;;;5065898;28;20217;-76
2022/11/18 05:55:53;;;;;;;3.87;2.60;;;;;;;;;;5065213;28;20185;-77
2022/11/18 05:58:20;;;;;;;4.97;2.60;;;;;;;;;;5057541;28;20257;-76
2022/11/18 06:00:48;;;;;;;2.70;2.30;;;;;;;;;;5063268;28;20193;-77
2022/11/18 06:03:20;;;;;;;3.20;2.40;;;;;;;;;;5064384;28;20220;-76
2022/11/18 06:05:47;;;;;;;2.37;2.07;;;;;;;;;;5065709;28;20785;-76
2022/11/18 06:08:14;;;;;;;2.00;1.87;;;;;;;;;;5065137;28;20235;-77
2022/11/18 06:10:41;;;;;;;3.37;1.87;;;;;;;;;;5065862;28;20185;-77
2022/11/18 06:13:09;;;;;;;2.90;1.90;;;;;;;;;;5064024;28;20652;-78
2022/11/18 06:15:37;;;;;;;3.13;1.90;;;;;;;;;;5065653;28;20187;-78
2022/11/18 06:18:10;;;;;;;2.87;1.70;;;;;;;;;;5080486;28;20271;-76
2022/11/18 06:20:37;;;;;;;3.20;1.70;;;;;;;;;;5065521;28;20185;-75
2022/11/18 06:23:03;;;;;;;1.90;1.20;;;;;;;;;;5063064;28;20217;-77
2022/11/18 06:25:29;;;;;;;3.30;1.60;;;;;;;;;;5061247;28;20283;-76
2022/11/18 06:27:57;;;;;;;2.80;1.40;;;;;;;;;;5065608;28;20185;-77
2022/11/18 06:30:23;;;;;;;2.50;1.40;;;;;;;;;;5065358;28;20191;-77
2022/11/18 06:32:49;;;;;;;2.80;1.33;;;;;;;;;;5064764;28;20266;-77
2022/11/18 06:35:15;;;;;;;1.50;1.40;;;;;;;;;;5063001;28;20170;-76
2022/11/18 06:37:42;;;;;;;1.40;1.20;;;;;;;;;;5060986;28;20462;-77
2022/11/18 06:40:08;;;;;;;2.93;1.30;;;;;;;;;;5065594;28;20326;-76
2022/11/18 06:45:19;;;;;;;1.80;1.20;;;;;;;;;;5083455;28;20181;-77
2022/11/18 06:47:46;;;;;;;2.67;1.37;;;;;;;;;;5073312;28;20188;-78
2022/11/18 06:50:12;;;;;;;1.53;1.43;;;;;;;;;;5064049;28;20188;-79
2022/11/18 06:52:38;;;;;;;1.73;1.50;;;;;;;;;;5065403;28;20213;-80
2022/11/18 06:55:08;;;;;;;1.50;1.40;;;;;;;;;;5056490;28;20795;-80
2022/11/18 06:57:34;;;;;;;2.30;1.70;;;;;;;;;;5074404;28;20182;-80
2022/11/18 07:00:00;;;;;;;2.00;1.60;;;;;;;;;;5063186;28;20748;-79
2022/11/18 07:02:26;;;;;;;3.77;1.40;;;;;;;;;;5076929;28;20216;-79
2022/11/18 07:04:53;;;;;;;1.80;1.30;;;;;;;;;;5070644;28;20208;-79
2022/11/18 07:07:19;;;;;;;1.53;1.30;;;;;;;;;;5054527;28;20193;-78
2022/11/18 07:09:45;;;;;;;3.20;1.30;;;;;;;;;;5057313;28;20182;-79
2022/11/18 07:12:11;;;;;;;2.10;1.00;;;;;;;;;;5057767;28;20294;-79
2022/11/18 07:14:37;;;;;;;1.73;1.20;;;;;;;;;;5075244;28;20170;-78
2022/11/18 07:17:03;;;;;;;1.40;1.20;;;;;;;;;;5062841;28;20529;-79
2022/11/18 07:19:29;;;;;;;1.90;1.03;;;;;;;;;;5060368;28;20201;-79
2022/11/18 07:21:58;;;;;;;2.03;1.13;;;;;;;;;;5064700;28;20603;-79
2022/11/18 07:24:24;;;;;;;2.40;1.40;;;;;;;;;;5045222;28;21000;-79
2022/11/18 07:26:53;;;;;;;2.40;1.20;;;;;;;;;;5057985;28;20608;-79
2022/11/18 07:29:19;;;;;;;2.37;1.40;;;;;;;;;;5077209;28;20188;-79
2022/11/18 07:31:45;;;;;;;2.27;1.20;;;;;;;;;;5063411;28;20208;-79
2022/11/18 07:34:12;;;;;;;1.93;1.30;;;;;;;;;;5059464;28;20273;-79
2022/11/18 07:36:38;;;;;;;2.50;1.40;;;;;;;;;;5058256;28;20189;-79
2022/11/18 07:39:05;;;;;;;2.80;1.30;;;;;;;;;;5060937;28;20173;-80
2022/11/18 07:41:32;;;;;;;1.53;1.10;;;;;;;;;;5063416;28;20272;-80
2022/11/18 07:43:59;;;;;;;2.13;1.50;;;;;;;;;;5079484;28;20210;-79
2022/11/18 07:46:26;;;;;;;2.47;1.33;;;;;;;;;;5073966;28;20278;-79
2022/11/18 07:48:54;;;;;;;2.40;1.47;;;;;;;;;;5065201;28;20193;-79
2022/11/18 07:51:21;;;;;;;2.60;1.70;;;;;;;;;;5075987;28;20623;-79
2022/11/18 07:53:48;;;;;;;2.47;1.50;;;;;;;;;;5062375;28;20624;-78
2022/11/18 07:56:14;;;;;;;3.33;1.60;;;;;;;;;;5072892;28;20184;-79
2022/11/18 07:58:40;;;;;;;1.87;1.37;;;;;;;;;;5057968;28;20177;-78
2022/11/18 08:01:11;;;;;;;2.30;1.80;;;;;;;;;;5075589;28;20196;-79
2022/11/18 08:03:37;;;;;;;2.47;1.67;;;;;;;;;;5063083;28;20668;-79
2022/11/18 08:06:04;;;;;;;2.07;1.60;;;;;;;;;;5058960;28;20184;-78
2022/11/18 08:08:30;;;;;;;2.90;1.57;;;;;;;;;;5055318;28;20266;-79
2022/11/18 08:10:57;;;;;;;3.30;2.80;;;;;;;;;;5060071;28;20189;-79
2022/11/18 08:13:24;;;;;;;3.30;2.40;;;;;;;;;;5063951;28;20300;-79
2022/11/18 08:15:50;;;;;;;4.40;3.20;;;;;;;;;;5069215;28;20234;-79
2022/11/18 08:18:17;;;;;;;2.23;1.80;;;;;;;;;;5060088;28;20170;-79
2022/11/18 08:20:46;;;;;;;2.63;1.87;;;;;;;;;;5076117;28;20185;-79
2022/11/18 08:23:13;;;;;;;2.57;1.80;;;;;;;;;;5066509;28;21893;-79
2022/11/18 08:25:39;;;;;;;2.40;1.47;;;;;;;;;;5028415;28;20193;-79
2022/11/18 08:28:05;;;;;;;2.17;1.70;;;;;;;;;;5064552;28;20213;-79
2022/11/18 08:30:35;;;;;;;4.00;2.30;;;;;;;;;;5062456;28;20185;-79
2022/11/18 08:33:01;;;;;;;3.70;2.30;;;;;;;;;;5067101;28;20231;-78
2022/11/18 08:35:28;;;;;;;2.80;1.90;;;;;;;;;;5060465;28;20177;-79
2022/11/18 08:37:54;;;;;;;3.90;1.90;;;;;;;;;;5075126;28;20185;-79
2022/11/18 08:40:22;;;;;;;3.13;1.60;;;;;;;;;;5065613;28;20234;-79
2022/11/18 08:42:48;;;;;;;1.50;1.33;;;;;;;;;;5083966;28;20212;-79
2022/11/18 08:45:15;;;;;;;1.83;1.50;;;;;;;;;;5064540;28;20185;-79
2022/11/18 08:47:41;;;;;;;2.30;1.30;;;;;;;;;;5058677;28;20226;-79
2022/11/18 08:50:08;;;;;;;1.97;1.20;;;;;;;;;;5069220;28;20269;-79
2022/11/18 08:52:34;;;;;;;2.57;1.40;;;;;;;;;;5068576;28;20277;-78
2022/11/18 08:55:01;;;;;;;1.80;1.43;;;;;;;;;;5065381;28;21463;-79
2022/11/18 08:57:28;;;;;;;2.93;2.17;;;;;;;;;;5083746;28;20554;-78
2022/11/18 08:59:54;;;;;;;4.07;2.07;;;;;;;;;;5067209;28;20199;-79
2022/11/18 09:02:21;;;;;;;2.63;2.03;;;;;;;;;;5066716;28;20212;-79
2022/11/18 09:04:48;;;;;;;2.50;1.77;;;;;;;;;;5066708;28;21002;-79
2022/11/18 09:07:14;;;;;;;2.30;1.70;;;;;;;;;;5067230;28;20296;-78
2022/11/18 09:09:40;;;;;;;1.70;1.50;;;;;;;;;;5070013;28;20181;-78
2022/11/18 09:12:08;;;;;;;2.73;1.67;;;;;;;;;;5082264;28;20209;-79
2022/11/18 09:14:34;;;;;;;3.03;1.87;;;;;;;;;;5077547;28;20186;-78
2022/11/18 09:17:00;;;;;;;1.47;1.30;;;;;;;;;;5069284;28;20228;-78
2022/11/18 09:19:27;;;;;;;1.40;1.30;;;;;;;;;;5066108;28;20262;-78
2022/11/18 09:21:53;;;;;;;2.67;1.77;;;;;;;;;;5065341;28;20188;-79
2022/11/18 09:24:19;;;;;;;1.90;1.70;;;;;;;;;;5078904;28;20213;-78
2022/11/18 09:26:46;;;;;;;1.83;1.60;;;;;;;;;;5065228;28;20196;-78
2022/11/18 09:29:13;;;;;;;3.93;2.40;;;;;;;;;;5063745;28;20226;-78
2022/11/18 09:31:39;;;;;;;3.63;2.30;;;;;;;;;;5066889;28;20753;-78
2022/11/18 09:34:05;;;;;;;2.83;2.03;;;;;;;;;;5053704;28;20217;-79
2022/11/18 09:36:31;;;;;;;3.27;2.17;;;;;;;;;;5054603;28;20184;-78
2022/11/18 09:38:59;;;;;;;3.60;2.37;;;;;;;;;;5063863;28;20269;-78
2022/11/18 09:41:25;;;;;;;4.20;2.60;;;;;;;;;;5081904;28;20185;-78
2022/11/18 09:44:20;;;;;;;3.10;2.60;;;;;;;;;;5080979;28;20208;-78
2022/11/18 09:47:02;;;;;;;2.97;2.50;;;;;;;;;;5010093;28;20234;-78
2022/11/18 09:49:35;;;;;;;3.07;2.50;;;;;;;;;;5077909;28;20242;-78
2022/11/18 09:52:04;;;;;;;2.43;2.10;;;;;;;;;;5075513;28;20261;-79
2022/11/18 09:54:35;;;;;;;2.80;2.50;;;;;;;;;;5078170;28;20644;-78
2022/11/18 09:57:01;;;;;;;2.67;2.47;;;;;;;;;;5063284;28;20196;-79
2022/11/18 09:59:30;;;;;;;2.47;2.27;;;;;;;;;;5060203;28;20212;-78
2022/11/18 10:01:58;;;;;;;3.87;2.53;;;;;;;;;;5060513;28;20178;-79
2022/11/18 10:04:24;;;;;;;4.33;3.40;;;;;;;;;;5064014;28;20625;-78
2022/11/18 10:06:50;;;;;;;3.20;2.90;;;;;;;;;;5066050;28;20529;-78
2022/11/18 10:09:32;;;;;;;5.47;3.60;;;;;;;;;;5077321;28;20173;-78
2022/11/18 10:12:04;;;;;;;3.57;2.97;;;;;;;;;;5064186;28;20235;-78
2022/11/18 10:14:50;;;;;;;3.10;2.63;;;;;;;;;;5061580;28;20235;-78
2022/11/18 10:17:28;;;;;;;5.93;3.10;;;;;;;;;;5079080;28;20174;-78
2022/11/18 10:20:13;;;;;;;4.47;3.33;;;;;;;;;;5063291;28;20187;-78
2022/11/18 10:22:42;;;;;;;4.37;3.10;;;;;;;;;;5062974;28;20213;-78
2022/11/18 10:25:12;;;;;;;2.73;2.40;;;;;;;;;;5076857;28;20264;-78
2022/11/18 10:27:40;;;;;;;4.73;2.50;;;;;;;;;;5079383;28;20280;-79
2022/11/18 10:30:23;;;;;;;4.73;3.17;;;;;;;;;;5069917;28;20790;-79
2022/11/18 10:33:00;;;;;;;3.53;2.90;;;;;;;;;;5048358;28;20213;-79
2022/11/18 10:35:31;;;;;;;4.73;2.50;;;;;;;;;;5065646;28;20185;-79
2022/11/18 10:38:06;;;;;;;3.53;2.73;;;;;;;;;;5067306;28;20264;-79
2022/11/18 10:40:33;;;;;;;3.17;2.83;;;;;;;;;;5065145;28;20220;-79
2022/11/18 10:42:59;;;;;;;3.20;2.83;;;;;;;;;;5065362;28;20216;-79
2022/11/18 10:45:27;;;;;;;3.90;3.03;;;;;;;;;;5064983;28;20181;-79
2022/11/18 10:48:01;;;;;;;3.30;2.83;;;;;;;;;;5061484;28;20181;-79
2022/11/18 10:50:29;;;;;;;3.40;2.70;;;;;;;;;;5068637;28;20185;-79
2022/11/18 10:52:55;;;;;;;3.17;2.87;;;;;;;;;;5057349;28;20208;-79
2022/11/18 10:55:23;;;;;;;4.03;3.30;;;;;;;;;;5065195;28;20183;-79
2022/11/18 10:57:50;;;;;;;3.50;3.20;;;;;;;;;;5063029;28;20660;-79
2022/11/18 11:00:36;;;;;;;4.37;3.60;;;;;;;;;;5082541;28;20205;-79
2022/11/18 11:03:20;;;;;;;3.83;3.30;;;;;;;;;;5088154;28;20275;-80
2022/11/18 11:05:46;;;;;;;4.30;3.53;;;;;;;;;;5066965;28;20185;-79
2022/11/18 11:08:19;;;;;;;3.57;3.17;;;;;;;;;;5064854;28;20242;-79
2022/11/18 11:10:54;;;;;;;3.90;3.30;;;;;;;;;;5065193;28;20663;-78
2022/11/18 11:13:21;;;;;;;3.20;2.83;;;;;;;;;;5066182;28;20212;-79
2022/11/18 11:15:48;;;;;;;5.13;3.00;;;;;;;;;;5090359;28;20173;-78
2022/11/18 11:21:03;;;;;;;4.13;3.73;;;;;;;;;;5066486;28;20515;-79
2022/11/18 11:23:31;;;;;;;3.90;3.50;;;;;;;;;;5064597;28;20216;-79
2022/11/18 11:26:03;;;;;;;4.70;4.30;;;;;;;;;;5071663;28;20209;-79
2022/11/18 11:28:48;;;;;;;5.73;4.70;;;;;;;;;;5065508;28;20303;-79
2022/11/18 11:31:24;;;;;;;6.30;4.43;;;;;;;;;;5068350;28;20220;-79
2022/11/18 11:33:54;;;;;;;6.03;4.53;;;;;;;;;;5067772;28;20944;-79
2022/11/18 11:36:20;;;;;;;6.30;4.50;;;;;;;;;;5065800;28;20181;-78
2022/11/18 11:39:10;;;;;;;4.63;4.20;;;;;;;;;;5072609;28;20178;-79
2022/11/18 11:41:39;;;;;;;5.17;4.57;;;;;;;;;;5066617;28;20181;-80
2022/11/18 11:44:30;;;;;;;5.10;4.17;;;;;;;;;;5068989;28;20266;-79
2022/11/18 11:50:02;;;;;;;6.70;4.37;;;;;;;;;;5073958;28;20181;-80
2022/11/18 11:52:42;;;;;;;4.77;4.37;;;;;;;;;;5090791;28;20201;-80
2022/11/18 11:55:08;;;;;;;5.50;4.60;;;;;;;;;;5085267;28;20169;-81
2022/11/18 11:57:40;;;;;;;5.37;4.20;;;;;;;;;;5071762;28;20189;-81
2022/11/18 12:00:14;;;;;;;4.77;4.30;;;;;;;;;;5062723;28;20193;-80
2022/11/18 12:02:46;;;;;;;4.70;4.20;;;;;;;;;;5073367;28;20201;-81
2022/11/18 12:05:19;;;;;;;5.13;4.10;;;;;;;;;;5067033;28;20173;-80
2022/11/18 12:07:47;;;;;;;5.23;4.50;;;;;;;;;;5059431;28;20189;-79
2022/11/18 12:10:22;;;;;;;4.77;4.30;;;;;;;;;;5068439;28;20184;-80
2022/11/18 12:13:12;;;;;;;4.63;4.07;;;;;;;;;;5062330;28;20219;-79
2022/11/18 12:16:01;;;;;;;5.73;4.80;;;;;;;;;;5044498;28;20272;-79
2022/11/18 12:18:50;;;;;;;6.40;5.10;;;;;;;;;;5047256;28;20250;-80
2022/11/18 12:21:35;;;;;;;7.00;4.60;;;;;;;;;;5059490;28;20193;-79
2022/11/18 12:24:17;;;;;;;6.17;5.23;;;;;;;;;;5070918;28;20221;-79
2022/11/18 12:26:45;;;;;;;4.97;4.50;;;;;;;;;;5062011;28;20189;-80
2022/11/18 12:29:18;;;;;;;5.20;4.27;;;;;;;;;;5071601;28;20185;-83
2022/11/18 12:31:49;;;;;;;4.67;4.17;;;;;;;;;;5069133;28;20189;-78
2022/11/18 12:34:27;;;;;;;5.85;4.50;;;;;;;;;;5074833;28;20520;-79
2022/11/18 12:36:54;;;;;;;5.20;4.40;;;;;;;;;;5082331;28;20542;-79
2022/11/18 12:39:23;;;;;;;4.93;4.20;;;;;;;;;;5067772;28;20532;-79
2022/11/18 12:44:51;;;;;;;6.53;3.97;;;;;;;;;;5061717;28;20181;-79
2022/11/18 12:47:36;;;;;;;5.43;4.00;;;;;;;;;;5062229;28;20252;-79
2022/11/18 12:50:02;;;;;;;5.57;4.50;;;;;;;;;;5067139;28;20644;-79
2022/11/18 12:52:29;;;;;;;7.77;5.00;;;;;;;;;;5072787;28;20205;-78
2022/11/18 12:55:11;;;;;;;7.80;5.00;;;;;;;;;;5068769;28;20220;-79
2022/11/18 12:57:40;;;;;;;7.77;6.37;;;;;;;;;;5067129;28;20752;-79
2022/11/18 13:00:25;;;;;;;8.93;6.80;;;;;;;;;;5062580;28;20178;-78
2022/11/18 13:03:01;;;;;;;6.77;3.97;;;;;;;;;;5067426;28;20225;-79
2022/11/18 13:05:32;;;;;;;6.97;3.20;;;;;;;;;;5063536;28;20192;-74
2022/11/18 13:08:14;;;;;;;2.37;1.67;;;;;;;;;;5064015;28;20189;-78
2022/11/18 13:10:40;;;;;;;2.10;1.30;;;;;;;;;;5081778;28;20185;-77
2022/11/18 13:13:13;;;;;;;2.10;1.50;;;;;;;;;;5062191;28;20635;-77
2022/11/18 13:18:27;;;;;;;2.63;1.60;;;;;;;;;;5059574;28;20186;-78
2022/11/18 13:20:57;;;;;;;3.97;1.73;;;;;;;;;;5087626;28;20188;-77
2022/11/18 13:26:33;;;;;;;2.40;1.47;;;;;;;;;;5062050;28;20177;-77
2022/11/18 13:28:59;;;;;;;2.37;1.47;;;;;;;;;;5064866;28;20192;-79
2022/11/18 13:31:30;;;;;;;2.43;1.60;;;;;;;;;;5065905;28;20254;-77
2022/11/18 13:34:00;;;;;;;4.67;3.00;;;;;;;;;;5070136;28;20271;-77
2022/11/18 13:36:27;;;;;;;2.67;2.13;;;;;;;;;;5080392;28;20594;-77
2022/11/18 13:38:57;;;;;;;3.43;2.03;;;;;;;;;;5059828;28;20260;-77
2022/11/18 13:41:31;;;;;;;2.83;2.50;;;;;;;;;;5075934;28;20178;-77
2022/11/18 13:44:16;;;;;;;5.13;2.73;;;;;;;;;;5061031;28;20221;-77
2022/11/18 13:46:43;;;;;;;4.50;3.00;;;;;;;;;;5080210;28;20180;-77
2022/11/18 13:49:13;;;;;;;6.57;3.47;;;;;;;;;;5076167;28;20185;-77
2022/11/18 13:51:40;;;;;;;7.53;5.20;;;;;;;;;;5061706;28;20623;-78
2022/11/18 13:54:07;;;;;;;16.73;6.00;;;;;;;;;;5076511;28;20213;-79
2022/11/18 13:56:33;;;;;;;7.97;5.90;;;;;;;;;;5077831;28;20343;-79
2022/11/18 13:59:00;;;;;;;17.33;10.80;;;;;;;;;;5063504;28;20200;-78
2022/11/18 14:01:33;;;;;;;26.93;15.47;;;;;;;;;;5054476;28;20601;-78
2022/11/18 14:04:04;;;;;;;15.13;10.30;;;;;;;;;;5051876;28;20204;-77
2022/11/18 14:06:30;;;;;;;16.17;12.17;;;;;;;;;;5065379;28;20207;-78
2022/11/18 14:09:09;;;;;;;10.57;7.77;;;;;;;;;;5083162;28;20187;-78
2022/11/18 14:11:40;;;;;;;15.87;11.17;;;;;;;;;;5075259;28;20606;-78
2022/11/18 14:14:06;;;;;;;9.57;7.37;;;;;;;;;;5059620;28;21533;-77
2022/11/18 14:16:34;;;;;;;13.37;8.60;;;;;;;;;;5057762;28;20257;-79
2022/11/18 14:19:00;;;;;;;10.37;7.67;;;;;;;;;;5042668;28;20185;-77
2022/11/18 14:21:28;;;;;;;14.63;8.80;;;;;;;;;;5061599;28;20210;-77
2022/11/18 14:23:54;;;;;;;15.07;8.87;;;;;;;;;;5075127;28;20215;-77
2022/11/18 14:26:28;;;;;;;11.90;8.20;;;;;;;;;;5070386;28;20186;-77
2022/11/18 14:28:55;;;;;;;8.17;4.93;;;;;;;;;;5052188;28;20806;-77
2022/11/18 14:31:28;;;;;;;7.80;4.90;;;;;;;;;;5055826;28;20177;-77
2022/11/18 14:34:08;;;;;;;10.17;4.67;;;;;;;;;;5058534;28;20220;-77
2022/11/18 14:36:34;;;;;;;13.50;7.13;;;;;;;;;;5056691;28;20206;-77
2022/11/18 14:39:00;;;;;;;12.90;7.10;;;;;;;;;;5056793;28;20228;-77
2022/11/18 14:44:12;;;;;;;16.67;8.27;;;;;;;;;;5060207;28;20342;-77
2022/11/18 14:46:38;;;;;;;10.07;5.70;;;;;;;;;;5060020;28;20652;-77
2022/11/18 14:49:06;;;;;;;6.90;4.03;;;;;;;;;;5056808;28;20699;-77
2022/11/18 14:51:32;;;;;;;6.60;4.17;;;;;;;;;;5057425;28;20691;-77
2022/11/18 14:53:58;;;;;;;10.73;6.03;;;;;;;;;;5070517;28;20216;-77
2022/11/18 14:56:29;;;;;;;10.30;7.10;;;;;;;;;;5071069;28;20594;-77
2022/11/18 14:58:55;;;;;;;9.80;6.43;;;;;;;;;;5072551;28;20250;-77
2022/11/18 15:01:23;;;;;;;9.73;6.50;;;;;;;;;;5058417;28;20736;-77
2022/11/18 15:03:50;;;;;;;21.10;12.60;;;;;;;;;;5077537;28;20290;-76
2022/11/18 15:06:17;;;;;;;8.50;5.90;;;;;;;;;;5065203;28;20181;-76
2022/11/18 15:08:44;;;;;;;7.10;4.80;;;;;;;;;;5076593;28;20211;-76
2022/11/18 15:11:11;;;;;;;8.60;5.63;;;;;;;;;;5056857;28;20182;-77
2022/11/18 15:13:37;;;;;;;10.73;5.93;;;;;;;;;;5072872;28;20807;-77
2022/11/18 15:16:30;;;;;;;15.03;8.03;;;;;;;;;;5066424;28;20185;-77
2022/11/18 15:18:57;;;;;;;15.63;8.97;;;;;;;;;;5051942;28;20262;-77